Time;durP1;ratioP1;P1;durP2;ratioP2;P2;SDS_P1;SDS_P2;PMS_P1;PMS_P2;Temp;Humidity;BMP_temperature;BMP_pressure;BME280_temperature;BME280_humidity;BME280_pressure;Samples;Min_cycle;Max_cycle;Signal;HPM_P1;HPM_P2
2021/12/07 00:01:34;;;;;;;31.43;18.97;;;3.70;1.00;;;;;;5046411;28;20290;-56
2021/12/07 00:04:00;;;;;;;31.97;20.10;;;3.60;1.00;;;;;;5052142;28;20527;-57
2021/12/07 00:06:26;;;;;;;30.93;19.20;;;3.70;1.00;;;;;;5051549;28;20548;-57
2021/12/07 00:08:54;;;;;;;30.60;18.73;;;;;;;;;;5052345;28;20250;-55
2021/12/07 00:11:23;;;;;;;28.67;19.00;;;3.60;1.00;;;;;;5052385;28;20448;-57
2021/12/07 00:13:49;;;;;;;28.13;17.20;;;3.60;1.00;;;;;;5059533;28;20450;-59
2021/12/07 00:16:14;;;;;;;29.73;17.33;;;3.70;1.00;;;;;;5050214;28;20456;-57
2021/12/07 00:18:40;;;;;;;25.70;17.13;;;3.70;1.00;;;;;;5049143;28;20227;-58
2021/12/07 00:21:08;;;;;;;25.43;15.20;;;3.60;1.00;;;;;;5041747;28;20286;-57
2021/12/07 00:23:34;;;;;;;29.33;16.23;;;3.60;1.00;;;;;;5051302;28;20970;-57
2021/12/07 00:26:00;;;;;;;26.63;16.10;;;3.60;1.00;;;;;;5052689;28;20435;-56
2021/12/07 00:28:26;;;;;;;29.00;17.03;;;3.60;1.00;;;;;;5051632;28;20458;-58
2021/12/07 00:30:52;;;;;;;27.07;16.67;;;3.70;1.00;;;;;;5052348;28;20178;-57
2021/12/07 00:33:36;;;;;;;24.67;16.07;;;3.70;1.00;;;;;;5048070;28;20937;-56
2021/12/07 00:36:01;;;;;;;27.37;15.37;;;3.60;1.00;;;;;;5049238;28;20542;-55
2021/12/07 00:38:27;;;;;;;25.87;15.53;;;3.60;1.00;;;;;;5052524;28;20613;-56
2021/12/07 00:40:56;;;;;;;26.63;15.00;;;3.60;1.00;;;;;;5049079;28;20448;-56
2021/12/07 00:43:22;;;;;;;26.47;15.97;;;3.70;1.00;;;;;;5051505;28;20227;-56
2021/12/07 00:45:49;;;;;;;21.67;14.87;;;3.60;1.00;;;;;;5049737;28;20479;-58
2021/12/07 00:48:16;;;;;;;25.60;13.90;;;3.60;1.00;;;;;;5053451;28;20533;-56
2021/12/07 00:50:45;;;;;;;21.23;14.07;;;3.60;1.00;;;;;;5049684;28;20455;-57
2021/12/07 00:53:11;;;;;;;22.40;14.67;;;3.60;1.00;;;;;;5045761;28;20453;-60
2021/12/07 00:55:47;;;;;;;24.40;15.37;;;3.60;1.00;;;;;;5051537;28;20465;-56
2021/12/07 00:58:20;;;;;;;22.50;14.33;;;3.50;1.00;;;;;;5050520;28;20476;-54
2021/12/07 01:00:49;;;;;;;25.13;14.03;;;3.60;1.00;;;;;;5050858;28;20444;-59
2021/12/07 01:03:15;;;;;;;22.70;12.10;;;3.60;1.00;;;;;;5049237;28;20481;-57
2021/12/07 01:05:47;;;;;;;20.87;12.90;;;3.70;1.00;;;;;;5047118;28;21062;-56
2021/12/07 01:24:47;;;;;;;20.40;14.77;;;3.60;1.00;;;;;;5043813;28;20583;-55
2021/12/07 01:27:19;;;;;;;23.57;13.73;;;3.70;1.00;;;;;;5050052;28;20571;-57
2021/12/07 01:29:53;;;;;;;21.57;14.20;;;3.70;1.00;;;;;;5048379;28;20188;-57
2021/12/07 01:32:39;;;;;;;22.40;12.87;;;3.70;1.00;;;;;;5050355;28;20445;-58
2021/12/07 01:51:13;;;;;;;24.20;13.53;;;3.60;1.00;;;;;;5055587;28;20999;-57
2021/12/07 02:01:33;;;;;;;23.50;14.13;;;3.60;1.00;;;;;;5049170;28;20858;-56
2021/12/07 02:03:59;;;;;;;26.93;15.30;;;3.60;1.00;;;;;;5047870;28;20889;-56
2021/12/07 02:06:24;;;;;;;22.80;14.00;;;3.60;1.00;;;;;;5050397;28;20451;-57
2021/12/07 02:08:51;;;;;;;19.83;12.60;;;3.60;1.00;;;;;;5046985;28;20195;-57
2021/12/07 02:11:17;;;;;;;20.77;14.00;;;3.60;1.00;;;;;;5048256;28;20181;-56
2021/12/07 02:16:11;;;;;;;23.97;14.60;;;3.30;1.00;;;;;;5047418;28;20517;-56
2021/12/07 02:18:37;;;;;;;21.03;13.13;;;3.20;1.00;;;;;;5050627;28;20655;-55
2021/12/07 02:21:20;;;;;;;20.57;13.63;;;3.20;1.00;;;;;;5045807;28;20451;-58
2021/12/07 02:23:47;;;;;;;25.07;14.40;;;3.10;1.00;;;;;;5053297;28;20245;-57
2021/12/07 02:26:13;;;;;;;18.80;13.47;;;3.10;1.00;;;;;;5051243;28;20911;-56
2021/12/07 02:28:40;;;;;;;23.30;14.40;;;3.10;1.00;;;;;;5042661;28;21686;-62
2021/12/07 02:31:07;;;;;;;25.30;15.83;;;3.20;1.00;;;;;;5047296;28;20453;-56
2021/12/07 02:33:34;;;;;;;20.97;14.40;;;3.10;1.00;;;;;;5053130;28;20954;-56
2021/12/07 02:35:59;;;;;;;22.83;14.00;;;3.20;1.00;;;;;;5044392;28;20463;-56
2021/12/07 02:38:25;;;;;;;25.10;15.37;;;3.20;1.00;;;;;;5048142;28;20447;-54
2021/12/07 02:40:50;;;;;;;30.70;16.50;;;3.20;1.00;;;;;;5047762;28;20201;-55
2021/12/07 02:43:16;;;;;;;23.07;14.93;;;3.40;1.00;;;;;;5043678;28;20300;-57
2021/12/07 02:45:42;;;;;;;24.07;14.97;;;3.40;1.00;;;;;;5047410;28;20595;-57
2021/12/07 02:48:07;;;;;;;23.63;15.20;;;3.40;1.00;;;;;;5049740;28;20178;-56
2021/12/07 02:50:33;;;;;;;25.43;14.93;;;3.40;1.00;;;;;;5048275;28;20240;-56
2021/12/07 02:53:00;;;;;;;21.93;13.93;;;3.60;1.00;;;;;;5047257;28;20219;-56
2021/12/07 02:55:26;;;;;;;27.23;15.20;;;3.60;1.00;;;;;;5048216;28;20525;-57
2021/12/07 02:57:52;;;;;;;22.87;14.43;;;;;;;;;;5045057;28;20476;-57
2021/12/07 03:00:22;;;;;;;26.27;15.17;;;3.60;1.00;;;;;;5046808;28;20449;-56
2021/12/07 03:03:00;;;;;;;20.20;13.53;;;3.70;1.00;;;;;;5045276;28;20450;-58
2021/12/07 03:26:39;;;;;;;22.87;14.50;;;;;;;;;;5051285;28;20526;-55
2021/12/07 03:29:05;;;;;;;25.23;14.83;;;3.60;1.00;;;;;;5051731;28;20446;-56
2021/12/07 03:31:30;;;;;;;25.40;15.63;;;3.60;1.00;;;;;;5048487;28;20455;-56
2021/12/07 03:33:58;;;;;;;26.97;15.73;;;3.60;1.00;;;;;;5046204;28;20187;-57
2021/12/07 03:36:25;;;;;;;24.47;14.87;;;3.50;1.00;;;;;;5056553;28;20546;-56
2021/12/07 03:38:51;;;;;;;21.87;14.93;;;3.50;1.00;;;;;;5054406;28;20463;-56
2021/12/07 03:41:18;;;;;;;25.90;15.00;;;3.40;1.00;;;;;;5052046;28;20453;-58
2021/12/07 03:43:43;;;;;;;27.40;15.97;;;3.40;1.00;;;;;;5055436;28;20484;-57
2021/12/07 03:46:09;;;;;;;24.50;15.20;;;3.30;1.00;;;;;;5052398;28;20446;-57
2021/12/07 03:48:35;;;;;;;27.70;15.67;;;3.30;1.00;;;;;;5053344;28;20183;-55
2021/12/07 03:51:02;;;;;;;27.90;15.27;;;3.20;1.00;;;;;;5051448;28;20187;-57
2021/12/07 03:53:28;;;;;;;24.57;14.63;;;;;;;;;;5050662;28;20453;-58
2021/12/07 03:55:55;;;;;;;25.47;14.83;;;3.20;1.00;;;;;;5064513;28;20452;-56
2021/12/07 03:58:20;;;;;;;25.20;14.93;;;3.20;1.00;;;;;;5050073;28;21036;-57
2021/12/07 04:00:46;;;;;;;27.77;14.80;;;3.20;1.00;;;;;;5050039;28;20539;-57
2021/12/07 04:03:14;;;;;;;23.47;14.90;;;3.30;1.00;;;;;;5051030;28;20562;-57
2021/12/07 04:05:47;;;;;;;26.17;16.50;;;3.30;1.00;;;;;;5051303;28;20455;-56
2021/12/07 04:08:15;;;;;;;24.80;15.37;;;3.30;1.00;;;;;;5052821;28;20449;-57
2021/12/07 04:10:40;;;;;;;27.80;15.33;;;3.30;1.00;;;;;;5049689;28;20502;-57
2021/12/07 04:13:08;;;;;;;32.83;16.07;;;3.30;1.00;;;;;;5048379;28;20949;-57
2021/12/07 04:15:33;;;;;;;25.03;15.47;;;3.20;1.00;;;;;;5049429;28;20271;-56
2021/12/07 04:17:59;;;;;;;24.10;14.60;;;3.10;1.00;;;;;;5046845;28;21777;-57
2021/12/07 04:20:25;;;;;;;23.53;15.00;;;3.10;1.00;;;;;;5053184;28;20184;-56
2021/12/07 04:22:50;;;;;;;26.13;13.53;;;3.00;1.00;;;;;;5050572;28;20195;-56
2021/12/07 04:25:17;;;;;;;25.23;14.63;;;2.90;1.00;;;;;;5052176;28;20199;-56
2021/12/07 04:27:44;;;;;;;22.00;13.57;;;2.80;1.00;;;;;;5048933;28;20225;-56
2021/12/07 04:30:14;;;;;;;22.83;13.77;;;2.80;1.00;;;;;;5052309;28;20463;-57
2021/12/07 04:32:40;;;;;;;28.33;16.50;;;2.80;1.00;;;;;;5046950;28;20811;-57
2021/12/07 04:35:07;;;;;;;23.90;13.80;;;2.90;1.00;;;;;;5051651;28;20445;-58
2021/12/07 04:37:33;;;;;;;24.87;14.23;;;2.70;1.00;;;;;;5048995;28;20452;-56
2021/12/07 04:39:58;;;;;;;25.37;15.43;;;2.70;1.00;;;;;;5050294;28;20854;-56
2021/12/07 04:42:26;;;;;;;20.37;13.60;;;;;;;;;;5046688;28;20515;-56
2021/12/07 04:44:55;;;;;;;28.70;16.03;;;2.60;1.00;;;;;;5044520;28;20676;-56
2021/12/07 04:47:31;;;;;;;25.93;15.60;;;2.50;1.00;;;;;;5045412;28;20480;-56
2021/12/07 04:50:29;;;;;;;23.80;15.30;;;2.60;1.00;;;;;;5045419;28;20460;-57
2021/12/07 04:58:18;;;;;;;26.40;15.87;;;2.40;1.00;;;;;;5051830;28;20518;-56
2021/12/07 05:00:44;;;;;;;23.27;14.73;;;;;;;;;;5049816;28;20450;-55
2021/12/07 05:03:13;;;;;;;25.07;14.90;;;2.40;1.00;;;;;;5051081;28;20210;-58
2021/12/07 05:05:44;;;;;;;24.07;13.00;;;2.40;1.00;;;;;;5050211;28;20437;-55
2021/12/07 05:08:14;;;;;;;23.27;15.80;;;;;;;;;;5050423;28;20450;-57
2021/12/07 05:39:33;;;;;;;26.60;14.37;;;2.40;1.00;;;;;;5051059;28;20462;-57
2021/12/07 05:41:59;;;;;;;22.73;14.50;;;2.30;1.00;;;;;;5051171;28;20448;-58
2021/12/07 05:44:24;;;;;;;23.83;15.20;;;2.30;1.00;;;;;;5051035;28;20536;-58
2021/12/07 05:46:50;;;;;;;23.83;14.57;;;2.20;1.00;;;;;;5051695;28;20235;-58
2021/12/07 05:49:15;;;;;;;28.80;15.50;;;2.20;1.00;;;;;;5051223;28;20185;-57
2021/12/07 05:51:41;;;;;;;24.80;15.10;;;2.20;1.00;;;;;;5053005;28;20662;-58
2021/12/07 05:54:07;;;;;;;20.70;13.80;;;2.20;1.00;;;;;;5050471;28;20303;-58
2021/12/07 05:56:32;;;;;;;24.43;15.67;;;2.10;1.00;;;;;;5058486;28;20189;-58
2021/12/07 05:58:58;;;;;;;25.13;15.20;;;2.20;1.00;;;;;;5051750;28;20675;-59
2021/12/07 06:01:23;;;;;;;24.93;14.33;;;2.10;1.00;;;;;;5049615;28;20276;-59
2021/12/07 06:03:49;;;;;;;25.20;15.97;;;2.20;1.00;;;;;;5051054;28;20304;-58
2021/12/07 06:06:15;;;;;;;23.70;14.43;;;2.20;1.00;;;;;;5050779;28;20538;-59
2021/12/07 06:08:40;;;;;;;27.67;14.67;;;2.20;1.00;;;;;;5049304;28;20679;-61
2021/12/07 06:11:06;;;;;;;26.57;15.60;;;2.20;1.00;;;;;;5050519;28;20257;-58
2021/12/07 06:13:32;;;;;;;29.90;16.20;;;2.10;1.00;;;;;;5066580;28;20189;-57
2021/12/07 06:16:03;;;;;;;23.03;14.60;;;2.20;1.00;;;;;;5050147;28;20549;-58
2021/12/07 06:18:29;;;;;;;30.03;16.50;;;;;;;;;;5052494;28;20454;-58
2021/12/07 06:20:55;;;;;;;25.97;15.53;;;2.00;1.00;;;;;;5058170;28;20549;-58
2021/12/07 06:23:20;;;;;;;27.50;14.73;;;2.00;1.00;;;;;;5053455;28;20537;-58
2021/12/07 06:25:48;;;;;;;26.50;15.53;;;2.00;1.00;;;;;;5050631;28;20208;-58
2021/12/07 06:28:14;;;;;;;27.07;16.67;;;2.10;1.00;;;;;;5049746;28;20221;-59
2021/12/07 06:30:41;;;;;;;26.47;15.43;;;2.10;1.00;;;;;;5049292;28;20447;-58
2021/12/07 06:33:07;;;;;;;26.70;15.23;;;2.10;1.00;;;;;;5049841;28;20922;-58
2021/12/07 06:35:33;;;;;;;25.47;16.40;;;;;;;;;;5050806;28;20459;-59
2021/12/07 06:37:58;;;;;;;24.60;14.77;;;2.00;1.00;;;;;;5049842;28;20184;-59
2021/12/07 06:40:24;;;;;;;21.70;14.27;;;2.00;1.00;;;;;;5050679;28;20439;-59
2021/12/07 06:42:49;;;;;;;24.30;14.57;;;2.00;1.00;;;;;;5049908;28;20234;-57
2021/12/07 06:45:15;;;;;;;25.97;15.23;;;2.00;1.00;;;;;;5053474;28;20183;-57
2021/12/07 06:47:41;;;;;;;25.40;15.70;;;1.90;1.00;;;;;;5048230;28;20189;-58
2021/12/07 06:50:09;;;;;;;32.20;15.43;;;1.90;1.00;;;;;;5050818;28;20184;-58
2021/12/07 06:52:35;;;;;;;26.90;15.93;;;1.90;1.00;;;;;;5048732;28;20179;-58
2021/12/07 06:55:01;;;;;;;28.23;15.33;;;2.00;1.00;;;;;;5050020;28;20437;-58
2021/12/07 06:57:27;;;;;;;29.00;15.50;;;2.00;1.00;;;;;;5049923;28;20946;-57
2021/12/07 06:59:53;;;;;;;26.00;16.10;;;2.00;1.00;;;;;;5050308;28;20446;-57
2021/12/07 07:02:20;;;;;;;23.33;15.23;;;2.00;1.00;;;;;;5049134;28;20458;-58
2021/12/07 07:04:46;;;;;;;25.53;16.13;;;2.00;1.00;;;;;;5049547;28;20500;-57
2021/12/07 07:07:11;;;;;;;30.17;15.87;;;1.90;1.00;;;;;;5049017;28;20982;-58
2021/12/07 07:09:37;;;;;;;28.67;15.83;;;2.00;1.00;;;;;;5050159;28;20265;-59
2021/12/07 07:12:03;;;;;;;27.33;16.27;;;2.00;1.00;;;;;;5049747;28;20189;-59
2021/12/07 07:14:29;;;;;;;26.43;15.40;;;2.10;1.00;;;;;;5049491;28;20647;-58
2021/12/07 07:16:54;;;;;;;24.37;15.30;;;2.00;1.00;;;;;;5049293;28;20560;-57
2021/12/07 07:19:20;;;;;;;26.70;16.60;;;2.10;1.00;;;;;;5048473;28;20186;-57
2021/12/07 07:21:46;;;;;;;29.03;17.03;;;2.10;1.00;;;;;;5049469;28;20195;-60
2021/12/07 07:24:11;;;;;;;28.20;15.27;;;2.10;1.00;;;;;;5048716;28;20204;-58
2021/12/07 07:26:37;;;;;;;28.27;16.50;;;2.20;1.00;;;;;;5049319;28;20301;-57
2021/12/07 07:29:03;;;;;;;25.87;16.83;;;2.20;1.00;;;;;;5050396;28;20189;-60
2021/12/07 07:31:29;;;;;;;26.37;16.57;;;2.20;1.00;;;;;;5048248;28;20192;-60
2021/12/07 07:33:55;;;;;;;28.50;17.47;;;2.20;1.00;;;;;;5049556;28;20449;-59
2021/12/07 07:36:22;;;;;;;29.27;16.17;;;2.20;1.00;;;;;;5049009;28;20468;-58
2021/12/07 07:38:48;;;;;;;27.83;16.97;;;2.30;1.00;;;;;;5048339;28;20649;-58
2021/12/07 07:41:13;;;;;;;25.00;15.47;;;2.30;1.00;;;;;;5049002;28;20442;-58
2021/12/07 07:43:39;;;;;;;28.10;16.17;;;2.30;1.00;;;;;;5050311;28;20533;-59
2021/12/07 07:46:05;;;;;;;28.83;17.67;;;2.30;1.00;;;;;;5049151;28;20194;-58
2021/12/07 07:48:31;;;;;;;27.43;15.33;;;2.30;1.00;;;;;;5047781;28;20269;-58
2021/12/07 07:50:57;;;;;;;25.83;15.97;;;2.40;1.00;;;;;;5049115;28;20178;-58
2021/12/07 07:53:23;;;;;;;26.07;15.00;;;2.50;1.00;;;;;;5049158;28;20503;-57
2021/12/07 07:55:50;;;;;;;26.97;15.93;;;2.50;1.00;;;;;;5049212;28;20440;-58
2021/12/07 07:58:17;;;;;;;30.90;17.23;;;;;;;;;;5051356;28;20843;-58
2021/12/07 08:00:44;;;;;;;24.10;15.13;;;2.50;1.00;;;;;;5050177;28;20473;-57
2021/12/07 08:03:10;;;;;;;29.60;17.23;;;2.50;1.00;;;;;;5052829;28;20440;-59
2021/12/07 08:05:35;;;;;;;23.47;16.23;;;2.50;1.00;;;;;;5052593;28;20473;-59
2021/12/07 08:08:01;;;;;;;33.00;19.03;;;2.60;1.00;;;;;;5052418;28;20478;-57
2021/12/07 08:10:28;;;;;;;27.00;16.00;;;5.20;1.00;;;;;;5053341;28;20181;-57
2021/12/07 08:13:02;;;;;;;29.83;16.87;;;2.60;1.00;;;;;;5053217;28;20210;-59
2021/12/07 08:15:30;;;;;;;26.87;16.80;;;2.70;1.00;;;;;;5053147;28;20436;-58
2021/12/07 08:17:56;;;;;;;28.30;16.47;;;2.70;1.00;;;;;;5051831;28;20448;-58
2021/12/07 08:20:22;;;;;;;27.07;16.67;;;;;;;;;;5053276;28;20469;-58
2021/12/07 08:22:48;;;;;;;24.40;16.47;;;2.80;1.00;;;;;;5053954;28;20444;-58
2021/12/07 08:25:14;;;;;;;30.97;18.90;;;2.80;1.00;;;;;;5052562;28;20508;-56
2021/12/07 08:27:40;;;;;;;26.17;16.10;;;2.70;1.00;;;;;;5055137;28;20474;-57
2021/12/07 08:30:08;;;;;;;34.13;18.33;;;2.90;1.00;;;;;;5052370;28;20439;-56
2021/12/07 08:32:34;;;;;;;23.97;16.30;;;2.90;1.00;;;;;;5053083;28;20537;-57
2021/12/07 08:35:00;;;;;;;29.50;17.87;;;3.00;1.00;;;;;;5052367;28;21060;-57
2021/12/07 08:37:25;;;;;;;30.33;17.23;;;3.00;1.00;;;;;;5052129;28;20212;-57
2021/12/07 08:39:51;;;;;;;27.43;16.60;;;3.10;1.00;;;;;;5052168;28;20435;-57
2021/12/07 08:42:19;;;;;;;28.50;16.97;;;3.20;1.00;;;;;;5053485;28;20548;-56
2021/12/07 08:44:45;;;;;;;29.23;17.47;;;;;;;;;;5052128;28;20213;-60
2021/12/07 08:47:11;;;;;;;27.80;16.67;;;3.20;1.00;;;;;;5052099;28;20518;-59
2021/12/07 08:49:36;;;;;;;30.10;18.30;;;3.30;1.00;;;;;;5052180;28;21032;-58
2021/12/07 08:52:02;;;;;;;28.27;17.10;;;3.40;1.00;;;;;;5051830;28;20188;-58
2021/12/07 08:59:45;;;;;;;30.00;17.23;;;3.60;1.00;;;;;;5052389;28;20435;-58
2021/12/07 09:02:18;;;;;;;25.13;16.97;;;3.60;1.00;;;;;;5053409;28;20445;-58
2021/12/07 09:04:45;;;;;;;23.40;15.90;;;3.60;1.00;;;;;;5054242;28;20517;-56
2021/12/07 09:07:11;;;;;;;30.63;17.83;;;;;;;;;;5053574;28;20417;-57
2021/12/07 09:09:36;;;;;;;26.23;16.33;;;3.80;1.00;;;;;;5051678;28;20460;-57
2021/12/07 09:12:07;;;;;;;27.23;17.27;;;3.90;1.00;;;;;;5051380;28;20438;-58
2021/12/07 09:14:34;;;;;;;24.23;15.97;;;4.00;1.00;;;;;;5055056;28;20180;-57
2021/12/07 09:17:01;;;;;;;29.07;17.73;;;4.10;1.00;;;;;;5051825;28;20527;-57
2021/12/07 09:19:27;;;;;;;27.27;16.70;;;;;;;;;;5053598;28;20508;-58
2021/12/07 09:21:54;;;;;;;26.00;16.00;;;4.30;1.00;;;;;;5055806;28;20963;-57
2021/12/07 09:24:20;;;;;;;27.60;17.07;;;4.20;1.00;;;;;;5053775;28;20462;-57
2021/12/07 09:26:46;;;;;;;26.10;15.93;;;4.20;1.00;;;;;;5051185;28;20484;-57
2021/12/07 09:29:12;;;;;;;22.53;15.70;;;4.30;1.00;;;;;;5051609;28;20534;-58
2021/12/07 09:31:39;;;;;;;25.40;17.63;;;4.20;1.00;;;;;;5051443;28;20435;-57
2021/12/07 09:34:06;;;;;;;27.53;16.60;;;4.20;1.00;;;;;;5050909;28;20454;-57
2021/12/07 09:36:32;;;;;;;24.80;16.30;;;4.20;1.00;;;;;;5051029;28;20439;-57
2021/12/07 09:39:08;;;;;;;26.67;15.57;;;4.30;1.00;;;;;;5050810;28;20447;-57
2021/12/07 09:41:34;;;;;;;25.47;17.10;;;4.30;1.00;;;;;;5050653;28;20916;-57
2021/12/07 09:44:00;;;;;;;27.30;16.50;;;4.30;1.00;;;;;;5051063;28;20532;-57
2021/12/07 09:46:26;;;;;;;25.67;17.10;;;;;;;;;;5051317;28;20187;-56
2021/12/07 09:48:52;;;;;;;26.90;18.13;;;4.40;1.00;;;;;;5051652;28;20431;-57
2021/12/07 09:51:20;;;;;;;25.10;17.43;;;4.50;1.00;;;;;;5055167;28;20572;-57
2021/12/07 09:53:49;;;;;;;25.47;17.20;;;4.50;1.00;;;;;;5052664;28;20452;-58
2021/12/07 09:56:15;;;;;;;24.67;16.17;;;4.60;1.00;;;;;;5051351;28;20447;-58
2021/12/07 09:58:41;;;;;;;25.70;16.83;;;4.70;1.00;;;;;;5050943;28;20449;-58
2021/12/07 10:01:09;;;;;;;29.23;18.20;;;4.70;1.00;;;;;;5032381;28;20542;-58
2021/12/07 10:03:36;;;;;;;27.37;17.80;;;4.80;1.00;;;;;;5051760;28;20509;-55
2021/12/07 10:06:02;;;;;;;26.20;16.10;;;4.80;1.00;;;;;;5050611;28;20979;-58
2021/12/07 10:08:28;;;;;;;29.60;17.70;;;5.00;1.00;;;;;;5051358;28;20509;-58
2021/12/07 10:10:56;;;;;;;23.40;16.50;;;5.10;1.00;;;;;;5050264;28;20451;-57
2021/12/07 10:13:27;;;;;;;27.57;16.60;;;5.10;1.00;;;;;;5050949;28;20241;-56
2021/12/07 10:15:53;;;;;;;29.00;18.30;;;5.20;1.00;;;;;;5050757;28;20414;-58
2021/12/07 10:18:33;;;;;;;26.00;17.30;;;5.10;1.00;;;;;;5049096;28;20467;-57
2021/12/07 10:21:03;;;;;;;26.93;16.33;;;5.00;1.00;;;;;;5050562;28;20443;-56
2021/12/07 10:23:36;;;;;;;30.10;16.60;;;5.00;1.00;;;;;;5050930;28;20465;-58
2021/12/07 10:26:28;;;;;;;28.83;17.30;;;5.00;1.00;;;;;;5049506;28;20460;-56
2021/12/07 10:29:11;;;;;;;30.43;16.30;;;5.10;1.00;;;;;;5049640;28;20569;-57
2021/12/07 10:31:50;;;;;;;27.23;17.10;;;5.10;1.00;;;;;;5050484;28;20467;-56
2021/12/07 10:34:18;;;;;;;24.83;15.23;;;5.20;1.00;;;;;;5048592;28;20461;-56
2021/12/07 10:36:48;;;;;;;26.27;17.83;;;8.30;1.00;;;;;;5050414;28;20437;-57
2021/12/07 10:39:23;;;;;;;26.27;17.33;;;5.20;1.00;;;;;;5047864;28;20443;-57
2021/12/07 10:41:50;;;;;;;26.80;16.80;;;5.30;1.00;;;;;;5050122;28;20501;-55
2021/12/07 10:44:18;;;;;;;23.57;15.17;;;5.30;1.00;;;;;;5047143;28;20888;-56
2021/12/07 10:46:48;;;;;;;26.57;17.07;;;5.30;1.00;;;;;;5049695;28;20929;-57
2021/12/07 10:49:26;;;;;;;22.57;16.93;;;5.40;1.00;;;;;;5049889;28;20446;-57
2021/12/07 10:52:02;;;;;;;29.50;17.10;;;5.50;1.00;;;;;;5051226;28;20434;-57
2021/12/07 10:54:32;;;;;;;31.37;19.03;;;5.50;1.00;;;;;;5049762;28;20979;-56
2021/12/07 10:57:02;;;;;;;24.77;15.63;;;5.60;1.00;;;;;;5049266;28;20450;-57
2021/12/07 10:59:27;;;;;;;28.57;16.70;;;5.70;1.00;;;;;;5049812;28;20836;-57
2021/12/07 11:01:53;;;;;;;26.80;17.17;;;5.80;1.00;;;;;;5049602;28;20457;-57
2021/12/07 11:04:29;;;;;;;24.00;14.07;;;6.00;1.00;;;;;;5052602;28;20235;-58
2021/12/07 11:07:23;;;;;;;29.87;18.20;;;6.20;1.00;;;;;;5049022;28;20172;-58
2021/12/07 11:10:19;;;;;;;27.53;17.80;;;6.40;1.00;;;;;;5051780;28;20443;-57
2021/12/07 11:15:29;;;;;;;29.30;17.23;;;6.60;1.00;;;;;;5048110;28;20514;-58
2021/12/07 11:17:59;;;;;;;27.17;17.47;;;6.50;1.00;;;;;;5049425;28;20405;-59
2021/12/07 11:20:27;;;;;;;25.13;17.00;;;6.50;1.00;;;;;;5048381;28;20422;-57
2021/12/07 11:22:57;;;;;;;28.17;18.13;;;6.60;1.00;;;;;;5049547;28;20796;-58
2021/12/07 11:31:30;;;;;;;26.50;17.13;;;6.50;1.00;;;;;;5055204;28;20926;-57
2021/12/07 11:34:11;;;;;;;27.13;16.20;;;6.50;1.00;;;;;;5051994;28;20413;-57
2021/12/07 11:37:16;;;;;;;27.30;16.77;;;6.50;1.00;;;;;;5051551;28;20445;-56
2021/12/07 11:39:51;;;;;;;26.80;17.00;;;6.30;1.00;;;;;;5048368;28;20478;-57
2021/12/07 11:42:16;;;;;;;26.17;17.03;;;6.30;1.00;;;;;;5051449;28;20444;-58
2021/12/07 11:45:02;;;;;;;21.83;15.53;;;6.20;1.00;;;;;;5053232;28;20466;-57
2021/12/07 11:47:33;;;;;;;29.37;17.10;;;6.20;1.00;;;;;;5054826;28;20172;-57
2021/12/07 11:50:08;;;;;;;25.40;16.33;;;6.10;1.00;;;;;;5053363;28;20438;-57
2021/12/07 11:52:34;;;;;;;26.70;16.37;;;6.00;1.00;;;;;;5052858;28;20987;-58
2021/12/07 11:55:00;;;;;;;30.17;18.27;;;5.90;1.00;;;;;;5053281;28;20526;-57
2021/12/07 11:57:25;;;;;;;28.63;18.30;;;5.90;1.00;;;;;;5053046;28;20189;-58
2021/12/07 11:59:51;;;;;;;26.60;18.40;;;5.80;1.00;;;;;;5053679;28;20218;-58
2021/12/07 12:02:18;;;;;;;29.97;17.83;;;5.80;1.00;;;;;;5052845;28;20189;-58
2021/12/07 12:04:45;;;;;;;23.93;16.83;;;5.90;1.00;;;;;;5051277;28;20292;-56
2021/12/07 12:07:11;;;;;;;28.67;18.10;;;5.90;1.00;;;;;;5053357;28;20424;-58
2021/12/07 12:09:46;;;;;;;28.80;17.60;;;5.90;1.00;;;;;;5052444;28;20964;-57
2021/12/07 12:12:24;;;;;;;22.00;14.63;;;5.90;1.00;;;;;;5053618;28;20186;-57
2021/12/07 12:15:23;;;;;;;24.90;16.97;;;5.80;1.00;;;;;;5052951;28;20447;-56
2021/12/07 12:18:07;;;;;;;28.47;16.77;;;7.60;1.00;;;;;;5052366;28;20447;-57
2021/12/07 12:21:10;;;;;;;25.93;17.17;;;5.90;1.00;;;;;;5052595;28;20982;-58
2021/12/07 12:24:07;;;;;;;24.33;15.73;;;6.00;1.00;;;;;;5052619;28;21233;-58
2021/12/07 12:26:34;;;;;;;26.00;16.80;;;6.10;1.00;;;;;;5052275;28;20472;-56
2021/12/07 12:29:00;;;;;;;23.63;16.60;;;6.10;1.00;;;;;;5052514;28;20438;-59
2021/12/07 12:31:56;;;;;;;25.30;17.33;;;6.20;1.00;;;;;;5053117;28;20513;-57
2021/12/07 12:34:31;;;;;;;24.63;16.90;;;6.30;1.00;;;;;;5053780;28;20417;-57
2021/12/07 12:37:10;;;;;;;22.07;14.90;;;6.20;1.00;;;;;;5051737;28;20454;-58
2021/12/07 12:40:00;;;;;;;22.17;15.60;;;6.20;1.00;;;;;;5052616;28;20443;-57
2021/12/07 12:42:41;;;;;;;25.60;16.83;;;6.10;1.00;;;;;;5051157;28;20446;-57
2021/12/07 12:45:20;;;;;;;25.97;15.73;;;6.10;1.00;;;;;;5053728;28;20441;-57
2021/12/07 12:47:46;;;;;;;23.97;16.70;;;6.10;1.00;;;;;;5052084;28;20931;-55
2021/12/07 12:50:19;;;;;;;31.23;18.37;;;6.00;1.00;;;;;;5051807;28;20435;-57
2021/12/07 12:52:52;;;;;;;30.37;19.17;;;6.00;1.00;;;;;;5051696;28;20439;-56
2021/12/07 12:55:29;;;;;;;28.33;17.30;;;6.00;1.00;;;;;;5051187;28;20446;-59
2021/12/07 12:57:55;;;;;;;27.60;18.13;;;6.10;1.00;;;;;;5052029;28;20834;-56
2021/12/07 13:00:22;;;;;;;26.47;17.53;;;6.10;1.00;;;;;;5052286;28;20425;-59
2021/12/07 13:02:53;;;;;;;32.50;18.13;;;5.90;1.00;;;;;;5052181;28;20183;-56
2021/12/07 13:05:34;;;;;;;25.37;17.00;;;5.90;1.00;;;;;;5051905;28;20477;-56
2021/12/07 13:08:15;;;;;;;30.20;18.30;;;5.80;1.00;;;;;;5053021;28;20453;-55
2021/12/07 13:10:56;;;;;;;27.07;16.37;;;5.80;1.00;;;;;;5071081;28;20445;-58
2021/12/07 13:13:36;;;;;;;25.13;16.30;;;5.80;1.00;;;;;;5050828;28;20438;-56
2021/12/07 13:16:16;;;;;;;29.07;16.80;;;5.70;1.00;;;;;;5054068;28;20512;-56
2021/12/07 13:18:43;;;;;;;27.77;18.03;;;5.70;1.00;;;;;;5055757;28;20777;-56
2021/12/07 13:21:39;;;;;;;30.17;17.93;;;5.60;1.00;;;;;;5052490;28;20932;-56
2021/12/07 13:24:15;;;;;;;28.40;17.43;;;5.70;1.00;;;;;;5043918;28;20471;-57
2021/12/07 13:26:51;;;;;;;26.53;19.20;;;5.70;1.00;;;;;;5051438;28;20744;-56
2021/12/07 13:29:23;;;;;;;26.60;17.10;;;5.60;1.00;;;;;;5049081;28;20438;-57
2021/12/07 13:31:56;;;;;;;29.30;18.07;;;5.60;1.00;;;;;;5052659;28;21115;-59
2021/12/07 13:34:29;;;;;;;25.07;17.83;;;5.60;1.00;;;;;;5050498;28;20504;-59
2021/12/07 13:36:59;;;;;;;27.57;17.07;;;5.60;1.00;;;;;;5050985;28;20462;-57
2021/12/07 13:39:24;;;;;;;26.73;16.10;;;5.60;1.00;;;;;;5052111;28;20482;-57
2021/12/07 13:42:07;;;;;;;25.80;16.00;;;5.70;1.00;;;;;;5050918;28;20971;-58
2021/12/07 13:44:53;;;;;;;23.97;17.43;;;5.70;1.00;;;;;;5050477;28;20204;-60
2021/12/07 13:47:23;;;;;;;29.40;18.20;;;5.60;1.00;;;;;;5052129;28;20529;-57
2021/12/07 13:50:00;;;;;;;25.07;16.93;;;5.60;1.00;;;;;;5051376;28;20950;-56
2021/12/07 13:52:32;;;;;;;29.03;17.60;;;5.60;1.00;;;;;;5052351;28;20952;-58
2021/12/07 13:55:00;;;;;;;32.47;19.60;;;5.70;1.00;;;;;;5051249;28;20443;-57
2021/12/07 13:57:30;;;;;;;28.17;17.47;;;5.70;1.00;;;;;;5051291;28;20435;-57
2021/12/07 14:00:07;;;;;;;25.67;18.43;;;5.60;1.00;;;;;;5050376;28;20439;-57
2021/12/07 14:02:33;;;;;;;33.23;20.20;;;5.60;1.00;;;;;;5054551;28;20958;-59
2021/12/07 14:05:11;;;;;;;36.17;19.47;;;5.50;1.00;;;;;;5050253;28;20470;-58
2021/12/07 14:07:39;;;;;;;28.33;18.57;;;5.60;1.00;;;;;;5049844;28;20192;-56
2021/12/07 14:10:16;;;;;;;30.57;18.50;;;5.60;1.00;;;;;;5048999;28;20452;-58
2021/12/07 14:12:43;;;;;;;28.87;18.50;;;5.50;1.00;;;;;;5050143;28;20443;-58
2021/12/07 14:15:15;;;;;;;28.13;18.53;;;5.60;1.00;;;;;;5050276;28;21101;-57
2021/12/07 14:17:44;;;;;;;30.63;18.10;;;5.60;1.00;;;;;;5053374;28;20459;-58
2021/12/07 14:20:11;;;;;;;30.53;18.77;;;5.60;1.00;;;;;;5048952;28;20951;-59
2021/12/07 14:22:36;;;;;;;28.00;19.13;;;5.60;1.00;;;;;;5050315;28;20449;-57
2021/12/07 14:25:04;;;;;;;31.50;18.67;;;5.70;1.00;;;;;;5050023;28;20674;-58
2021/12/07 14:27:30;;;;;;;28.13;18.93;;;;;;;;;;5049480;28;20221;-58
2021/12/07 14:29:55;;;;;;;35.33;18.30;;;5.50;1.00;;;;;;5049948;28;20789;-57
2021/12/07 14:32:21;;;;;;;29.10;18.40;;;5.60;1.00;;;;;;5051845;28;20420;-56
2021/12/07 14:34:47;;;;;;;27.90;18.80;;;5.60;1.00;;;;;;5050114;28;20250;-57
2021/12/07 14:37:13;;;;;;;33.63;18.13;;;5.50;1.00;;;;;;5032186;28;20298;-56
2021/12/07 14:39:41;;;;;;;29.73;19.50;;;5.50;1.00;;;;;;5049639;28;20530;-57
2021/12/07 14:42:10;;;;;;;28.17;18.53;;;5.50;1.00;;;;;;5051901;28;20176;-57
2021/12/07 14:44:39;;;;;;;29.33;18.47;;;5.50;1.00;;;;;;5048404;28;21050;-57
2021/12/07 14:47:07;;;;;;;29.87;18.80;;;5.50;1.00;;;;;;5051010;28;20418;-58
2021/12/07 14:49:52;;;;;;;30.50;18.37;;;5.40;1.00;;;;;;5049923;28;20480;-57
2021/12/07 14:52:21;;;;;;;26.90;18.37;;;5.50;1.00;;;;;;5050578;28;20441;-58
2021/12/07 14:54:48;;;;;;;29.40;18.50;;;5.40;1.00;;;;;;5049717;28;20435;-57